createdAt,value
2024-03-16T07:30:46.468Z,12.85
2024-03-16T07:33:15.045Z,12.68
2024-03-16T07:35:42.473Z,11.05
2024-03-16T07:38:09.596Z,12.15
2024-03-16T07:40:36.221Z,11.13
2024-03-16T07:43:03.192Z,12.32
2024-03-16T07:45:30.032Z,11.88
2024-03-16T07:47:56.999Z,10.98
2024-03-16T07:50:23.772Z,11.18
2024-03-16T07:52:50.430Z,11.70
2024-03-16T07:55:17.923Z,11.30
2024-03-16T07:57:44.637Z,10.57
2024-03-16T08:00:12.582Z,9.70
2024-03-16T08:02:39.549Z,9.95
2024-03-16T08:05:06.601Z,9.77
2024-03-16T08:07:33.195Z,9.13
2024-03-16T08:09:59.993Z,8.70
2024-03-16T08:12:28.353Z,8.80
2024-03-16T08:14:56.372Z,9.43
2024-03-16T08:17:23.694Z,9.48
2024-03-16T08:22:16.906Z,11.07
2024-03-16T08:24:43.619Z,9.55
2024-03-16T08:27:10.339Z,9.32
2024-03-16T08:29:36.882Z,8.48
2024-03-16T08:32:03.669Z,7.57
2024-03-16T08:34:30.454Z,7.22
2024-03-16T08:36:57.363Z,7.72
2024-03-16T08:39:28.349Z,8.43
2024-03-16T08:41:55.041Z,8.88
2024-03-16T08:44:21.662Z,7.60
2024-03-16T08:46:48.591Z,9.82
2024-03-16T08:49:15.328Z,8.32
2024-03-16T08:51:42.172Z,14.85
2024-03-16T08:54:08.839Z,9.35
2024-03-16T08:56:35.779Z,7.30
2024-03-16T08:59:04.620Z,7.60
2024-03-16T09:01:31.385Z,8.20
2024-03-16T09:03:58.026Z,8.50
2024-03-16T09:06:24.688Z,8.88
2024-03-16T09:08:51.960Z,6.80
2024-03-16T09:13:45.053Z,7.65
2024-03-16T09:16:11.663Z,7.13
2024-03-16T09:18:39.892Z,6.75
2024-03-16T09:21:06.855Z,6.97
2024-03-16T09:23:33.651Z,7.32
2024-03-16T09:26:02.262Z,6.00
2024-03-16T09:28:28.927Z,5.53
2024-03-16T09:30:57.062Z,5.40
2024-03-16T09:33:24.306Z,7.20
2024-03-16T09:35:53.869Z,8.60
2024-03-16T09:38:20.957Z,7.10
2024-03-16T09:40:58.701Z,8.85
